createdAt,value
2019-05-14T00:01:51.418Z,99870.24
2019-05-14T00:04:23.389Z,99867.97
2019-05-14T00:06:55.294Z,99872.91
2019-05-14T00:09:27.281Z,99865.41
2019-05-14T00:11:59.220Z,99863.63
2019-05-14T00:14:39.623Z,99865.02
2019-05-14T00:17:06.209Z,99858.80
2019-05-14T00:19:38.011Z,99858.30
2019-05-14T00:22:11.512Z,99858.93
2019-05-14T00:24:43.429Z,99862.88
2019-05-14T00:27:15.620Z,99862.88
2019-05-14T00:29:47.299Z,99857.78
2019-05-14T00:32:21.498Z,99853.47
2019-05-14T00:34:52.643Z,99856.27
2019-05-14T00:37:24.370Z,99854.09
2019-05-14T00:39:56.269Z,99851.30
2019-05-14T00:42:28.801Z,99850.94
2019-05-14T00:45:01.176Z,99861.37
2019-05-14T00:47:33.148Z,99862.52
2019-05-14T00:50:07.870Z,99856.05
2019-05-14T00:52:39.273Z,99851.95
2019-05-14T00:55:11.803Z,99853.88
2019-05-14T00:57:43.577Z,99856.53
2019-05-14T01:00:15.506Z,99862.02
2019-05-14T01:02:47.368Z,99861.25
2019-05-14T01:05:21.381Z,99865.31
2019-05-14T01:07:52.478Z,99865.45
2019-05-14T01:10:24.691Z,99860.75
2019-05-14T01:12:56.674Z,99860.37
2019-05-14T01:15:32.078Z,99851.59
2019-05-14T01:18:03.238Z,99859.98
2019-05-14T01:20:35.425Z,99859.36
2019-05-14T01:23:07.484Z,99861.63
2019-05-14T01:25:39.144Z,99858.47
2019-05-14T01:28:11.363Z,99860.12
2019-05-14T01:30:43.265Z,99867.11
2019-05-14T01:33:15.035Z,99862.14
2019-05-14T01:35:46.986Z,99859.86
2019-05-14T01:38:18.931Z,99862.93
2019-05-14T01:40:52.451Z,99859.73
2019-05-14T01:43:25.935Z,99857.08
2019-05-14T01:45:57.713Z,99858.97
2019-05-14T01:48:31.262Z,99868.12
2019-05-14T01:51:02.983Z,99865.84
2019-05-14T01:53:34.496Z,99860.12
2019-05-14T01:56:06.738Z,99864.32
2019-05-14T01:58:38.759Z,99862.67
2019-05-14T02:01:12.050Z,99861.50
2019-05-14T02:03:45.316Z,99860.58
2019-05-14T02:06:17.277Z,99854.98
2019-05-14T02:08:51.295Z,99857.06
2019-05-14T02:11:22.653Z,99853.59
2019-05-14T02:13:54.448Z,99859.84
2019-05-14T02:16:26.205Z,99856.27
2019-05-14T02:18:58.209Z,99857.41
2019-05-14T02:21:31.721Z,99866.31
2019-05-14T02:24:03.538Z,99866.58
2019-05-14T02:26:35.228Z,99861.98
2019-05-14T02:29:07.288Z,99862.63
2019-05-14T02:31:39.379Z,99860.20
2019-05-14T02:34:11.225Z,99855.12
2019-05-14T02:36:43.097Z,99857.92
2019-05-14T02:39:15.095Z,99861.97
2019-05-14T02:41:49.890Z,99860.70
2019-05-14T02:44:20.516Z,99859.95
2019-05-14T02:46:52.371Z,99849.13
2019-05-14T02:49:24.056Z,99849.27
2019-05-14T02:51:58.800Z,99849.64
2019-05-14T02:54:29.977Z,99847.50
2019-05-14T02:57:01.764Z,99844.19
2019-05-14T02:59:33.399Z,99838.84
2019-05-14T03:02:05.277Z,99842.66
2019-05-14T03:04:39.488Z,99843.06
2019-05-14T03:07:12.174Z,99843.31
2019-05-14T03:09:44.031Z,99838.59
2019-05-14T03:12:15.685Z,99841.92
2019-05-14T03:14:49.800Z,99837.73
2019-05-14T03:17:21.080Z,99841.44
2019-05-14T03:19:52.678Z,99842.45
2019-05-14T03:22:28.378Z,99835.19
2019-05-14T03:24:59.788Z,99844.22
2019-05-14T03:27:31.640Z,99838.51
2019-05-14T03:30:03.683Z,99842.70
2019-05-14T03:32:35.318Z,99843.34
2019-05-14T03:35:13.263Z,99848.16
2019-05-14T03:37:40.947Z,99843.70
2019-05-14T03:40:12.884Z,99847.14
2019-05-14T03:42:44.683Z,99840.67
2019-05-14T03:45:19.519Z,99845.62
2019-05-14T03:47:50.808Z,99839.64
2019-05-14T03:50:22.675Z,99845.98
2019-05-14T03:52:54.561Z,99840.38
2019-05-14T03:55:29.152Z,99851.83
2019-05-14T03:58:00.264Z,99854.88
2019-05-14T04:00:50.168Z,99849.80
2019-05-14T04:03:21.590Z,99859.72
2019-05-14T04:05:53.984Z,99857.94
2019-05-14T04:08:29.286Z,99859.70
2019-05-14T04:11:02.898Z,99857.42
2019-05-14T04:13:36.462Z,99858.44
2019-05-14T04:16:10.406Z,99864.39
2019-05-14T04:18:50.063Z,99856.34
2019-05-14T04:21:23.383Z,99852.78
2019-05-14T04:23:59.462Z,99849.48
2019-05-14T04:26:50.905Z,99858.52
2019-05-14T04:29:10.176Z,99850.08
2019-05-14T04:31:44.771Z,99844.85
2019-05-14T04:34:19.537Z,99843.80
2019-05-14T04:36:50.753Z,99841.23
2019-05-14T04:39:22.717Z,99842.86
2019-05-14T04:41:54.308Z,99844.87
2019-05-14T04:44:29.485Z,99849.94
2019-05-14T04:47:11.999Z,99849.34
2019-05-14T04:49:33.549Z,99848.11
2019-05-14T04:52:05.207Z,99854.08
2019-05-14T04:54:39.403Z,99849.55
2019-05-14T04:57:10.854Z,99859.62
2019-05-14T04:59:42.594Z,99860.98
2019-05-14T05:02:14.347Z,99858.66
2019-05-14T05:04:50.269Z,99853.09
2019-05-14T05:07:19.518Z,99858.61
2019-05-14T05:09:52.410Z,99857.69
2019-05-14T05:12:24.061Z,99856.30
2019-05-14T05:14:58.480Z,99859.58
2019-05-14T05:17:42.734Z,99858.91
2019-05-14T05:20:02.084Z,99860.77
2019-05-14T05:22:33.536Z,99854.97
2019-05-14T05:25:08.350Z,99865.02
2019-05-14T05:27:39.817Z,99858.69
2019-05-14T05:30:11.765Z,99864.09
2019-05-14T05:32:43.136Z,99864.36
2019-05-14T05:35:18.457Z,99868.44
2019-05-14T05:37:49.232Z,99860.75
2019-05-14T05:40:22.012Z,99867.76
2019-05-14T05:42:53.743Z,99867.35
2019-05-14T05:45:25.402Z,99868.25
2019-05-14T05:48:01.016Z,99873.35
2019-05-14T05:50:30.480Z,99878.48
2019-05-14T05:53:02.090Z,99877.63
2019-05-14T05:55:33.863Z,99881.09
2019-05-14T05:58:05.829Z,99882.95
2019-05-14T06:00:40.331Z,99873.84
2019-05-14T06:03:12.002Z,99875.59
2019-05-14T06:05:43.552Z,99874.84
2019-05-14T06:08:15.212Z,99876.16
2019-05-14T06:10:49.008Z,99880.80
2019-05-14T06:13:20.056Z,99884.83
2019-05-14T06:15:52.458Z,99878.19
2019-05-14T06:18:24.184Z,99879.77
2019-05-14T06:20:55.744Z,99880.30
2019-05-14T06:23:28.407Z,99883.98
2019-05-14T06:26:00.270Z,99881.42
2019-05-14T06:28:33.671Z,99877.19
2019-05-14T06:31:05.263Z,99873.84
2019-05-14T06:33:39.372Z,99875.98
2019-05-14T06:36:10.179Z,99883.54
2019-05-14T06:38:42.018Z,99880.16
2019-05-14T06:41:13.892Z,99879.27
2019-05-14T06:43:45.529Z,99883.23
2019-05-14T06:46:19.270Z,99888.92
2019-05-14T06:48:50.648Z,99882.77
2019-05-14T06:51:22.029Z,99876.18
2019-05-14T06:53:53.908Z,99873.19
2019-05-14T06:56:28.074Z,99872.91
2019-05-14T06:58:58.775Z,99868.78
2019-05-14T07:01:30.289Z,99874.84
2019-05-14T07:04:02.167Z,99870.15
2019-05-14T07:06:33.719Z,99864.58
2019-05-14T07:09:08.273Z,99865.24
2019-05-14T07:11:39.779Z,99862.80
2019-05-14T07:14:11.782Z,99867.56
2019-05-14T07:16:43.419Z,99866.66
2019-05-14T07:19:15.903Z,99871.40
2019-05-14T07:21:49.370Z,99873.39
2019-05-14T07:24:20.922Z,99871.28
2019-05-14T07:26:52.400Z,99870.17
2019-05-14T07:29:24.255Z,99865.12
2019-05-14T07:31:58.201Z,99863.81
2019-05-14T07:34:29.679Z,99860.62
2019-05-14T07:37:01.473Z,99855.66
2019-05-14T07:39:33.033Z,99849.43
2019-05-14T07:42:04.867Z,99851.92
2019-05-14T07:44:38.870Z,99852.48
2019-05-14T07:47:09.814Z,99851.45
2019-05-14T07:49:41.573Z,99852.88
2019-05-14T07:52:13.244Z,99851.64
2019-05-14T07:54:44.985Z,99844.26
2019-05-14T07:57:18.935Z,99841.13
2019-05-14T07:59:50.148Z,99843.75
2019-05-14T08:02:21.703Z,99842.63
2019-05-14T08:04:53.447Z,99843.44
2019-05-14T08:07:25.318Z,99846.38
2019-05-14T08:09:58.351Z,99849.33
2019-05-14T08:12:29.860Z,99845.95
2019-05-14T08:15:15.327Z,99851.05
2019-05-14T08:17:34.997Z,99851.36
2019-05-14T08:20:10.996Z,99844.11
2019-05-14T08:22:42.839Z,99846.84
2019-05-14T08:25:14.467Z,99846.98
2019-05-14T08:27:48.135Z,99846.61
2019-05-14T08:30:20.952Z,99845.84
2019-05-14T08:32:52.510Z,99841.95
2019-05-14T08:35:24.292Z,99837.00
2019-05-14T08:38:07.432Z,99834.90
2019-05-14T08:40:28.871Z,99833.98
2019-05-14T08:43:00.888Z,99832.33
2019-05-14T08:45:32.464Z,99830.35
2019-05-14T08:48:04.074Z,99828.94
2019-05-14T08:50:35.961Z,99829.03
2019-05-14T08:53:09.078Z,99839.75
2019-05-14T08:55:40.690Z,99838.83
2019-05-14T08:58:13.843Z,99835.48
2019-05-14T09:00:48.075Z,99832.61
2019-05-14T09:03:19.382Z,99833.80
2019-05-14T09:05:50.897Z,99831.73
2019-05-14T09:08:22.538Z,99842.34
2019-05-14T09:10:54.215Z,99840.21
2019-05-14T09:13:25.946Z,99843.37
2019-05-14T09:15:58.261Z,99832.50
2019-05-14T09:18:29.893Z,99842.83
2019-05-14T09:21:01.525Z,99844.52
2019-05-14T09:23:33.179Z,99841.20
2019-05-14T09:26:04.644Z,99835.39
2019-05-14T09:28:39.011Z,99839.05
2019-05-14T09:31:10.603Z,99842.27
2019-05-14T09:33:42.400Z,99847.02
2019-05-14T09:36:19.524Z,99840.12
2019-05-14T09:38:49.152Z,99836.67
2019-05-14T09:41:21.011Z,99833.44
2019-05-14T09:43:52.569Z,99825.70
2019-05-14T09:46:24.363Z,99823.89
2019-05-14T09:48:55.778Z,99821.75
2019-05-14T09:51:28.839Z,99818.14
2019-05-14T09:54:00.393Z,99816.50
2019-05-14T09:56:32.482Z,99816.78
2019-05-14T09:59:04.116Z,99816.55
2019-05-14T10:01:38.325Z,99810.87
2019-05-14T10:04:10.060Z,99811.30
2019-05-14T10:06:41.702Z,99806.27
2019-05-14T10:09:13.110Z,99805.73
2019-05-14T10:11:44.894Z,99803.98
2019-05-14T10:14:17.040Z,99814.00
2019-05-14T10:16:49.197Z,99811.84
2019-05-14T10:19:21.800Z,99807.81
2019-05-14T10:21:53.548Z,99809.91
2019-05-14T10:24:25.315Z,99810.90
2019-05-14T10:26:58.590Z,99809.63
2019-05-14T10:29:30.180Z,99807.03
2019-05-14T10:32:01.693Z,99807.42
2019-05-14T10:34:33.245Z,99798.73
2019-05-14T10:37:05.144Z,99801.78
2019-05-14T10:39:39.172Z,99798.88
2019-05-14T10:42:09.921Z,99805.31
2019-05-14T10:44:41.347Z,99805.00
2019-05-14T10:47:12.966Z,99805.17
2019-05-14T10:49:44.606Z,99802.52
2019-05-14T10:52:19.465Z,99798.48
2019-05-14T10:54:55.726Z,99797.10
2019-05-14T10:57:23.362Z,99798.62
2019-05-14T10:59:54.919Z,99793.45
2019-05-14T11:02:29.050Z,99794.37
2019-05-14T11:05:00.297Z,99789.16
2019-05-14T11:07:32.134Z,99788.59
2019-05-14T11:10:04.813Z,99792.86
2019-05-14T11:12:39.258Z,99788.24
2019-05-14T11:15:10.219Z,99788.67
2019-05-14T11:17:41.716Z,99789.88
2019-05-14T11:20:13.692Z,99788.82
2019-05-14T11:22:45.252Z,99795.82
2019-05-14T11:25:19.455Z,99792.28
2019-05-14T11:27:50.663Z,99794.13
2019-05-14T11:30:22.680Z,99786.51
2019-05-14T11:32:54.631Z,99783.06
2019-05-14T11:35:28.617Z,99785.67
2019-05-14T11:37:59.475Z,99782.97
2019-05-14T11:40:31.044Z,99778.80
2019-05-14T11:43:02.983Z,99775.54
2019-05-14T11:45:34.639Z,99775.62
2019-05-14T11:48:06.321Z,99773.61
2019-05-14T11:50:37.853Z,99767.59
2019-05-14T11:53:09.670Z,99763.55
2019-05-14T11:55:41.421Z,99765.41
2019-05-14T11:58:13.158Z,99763.39
2019-05-14T12:00:44.674Z,99759.89
2019-05-14T12:03:18.963Z,99758.13
2019-05-14T12:05:50.408Z,99763.72
2019-05-14T12:08:23.229Z,99767.30
2019-05-14T12:10:55.083Z,99756.78
2019-05-14T12:13:29.986Z,99752.41
2019-05-14T12:16:00.036Z,99746.05
2019-05-14T12:18:31.793Z,99745.05
2019-05-14T12:21:03.651Z,99744.38
2019-05-14T12:23:35.254Z,99749.39
2019-05-14T12:26:09.327Z,99745.02
2019-05-14T12:28:40.171Z,99747.87
2019-05-14T12:31:11.697Z,99744.00
2019-05-14T12:33:43.152Z,99750.43
2019-05-14T12:36:14.908Z,99747.33
2019-05-14T12:38:46.486Z,99738.94
2019-05-14T12:41:19.309Z,99735.39
2019-05-14T12:43:51.067Z,99726.94
2019-05-14T12:46:22.508Z,99731.47
2019-05-14T12:48:54.115Z,99732.77
2019-05-14T12:51:25.810Z,99733.56
2019-05-14T12:53:58.312Z,99730.05
2019-05-14T12:56:29.881Z,99733.91
2019-05-14T12:59:01.341Z,99731.41
2019-05-14T13:01:33.614Z,99727.48
2019-05-14T13:04:05.062Z,99735.93
2019-05-14T13:06:39.860Z,99735.67
2019-05-14T13:09:11.157Z,99733.30
2019-05-14T13:11:43.170Z,99729.97
2019-05-14T13:14:14.880Z,99725.38
2019-05-14T13:16:48.579Z,99723.20
2019-05-14T13:19:19.772Z,99720.44
2019-05-14T13:22:08.852Z,99714.00
2019-05-14T13:24:24.776Z,99720.47
2019-05-14T13:26:58.634Z,99722.05
2019-05-14T13:29:29.502Z,99722.31
2019-05-14T13:32:00.973Z,99722.66
2019-05-14T13:34:32.812Z,99716.94
2019-05-14T13:37:04.497Z,99714.86
2019-05-14T13:39:36.057Z,99715.80
2019-05-14T13:42:11.672Z,99715.80
2019-05-14T13:44:40.655Z,99712.27
2019-05-14T13:47:12.317Z,99716.00
2019-05-14T13:49:44.130Z,99722.75
2019-05-14T13:52:18.549Z,99719.51
2019-05-14T13:54:49.633Z,99713.30
2019-05-14T13:57:21.396Z,99716.07
2019-05-14T13:59:53.473Z,99708.36
2019-05-14T14:02:28.140Z,99713.29
2019-05-14T14:04:59.033Z,99712.37
2019-05-14T14:07:30.774Z,99705.03
2019-05-14T14:10:02.649Z,99703.44
2019-05-14T14:12:34.289Z,99699.24
2019-05-14T14:15:09.461Z,99700.50
2019-05-14T14:17:40.919Z,99704.70
2019-05-14T14:20:12.619Z,99704.27
2019-05-14T14:22:44.498Z,99706.62
2019-05-14T14:25:17.758Z,99713.92
2019-05-14T14:27:50.404Z,99704.80
2019-05-14T14:30:22.131Z,99708.14
2019-05-14T14:32:53.983Z,99708.49
2019-05-14T14:35:25.698Z,99710.77
2019-05-14T14:37:59.176Z,99712.09
2019-05-14T14:40:30.418Z,99713.11
2019-05-14T14:43:02.145Z,99715.96
2019-05-14T14:45:33.807Z,99721.65
2019-05-14T14:48:05.245Z,99714.28
2019-05-14T14:50:38.940Z,99721.65
2019-05-14T14:53:10.408Z,99715.27
2019-05-14T14:55:42.159Z,99714.02
2019-05-14T14:58:13.915Z,99714.44
2019-05-14T15:00:45.941Z,99714.11
2019-05-14T15:03:21.223Z,99716.03
2019-05-14T15:05:50.720Z,99717.72
2019-05-14T15:08:22.239Z,99717.29
2019-05-14T15:10:53.835Z,99722.15
2019-05-14T15:13:25.792Z,99721.09
2019-05-14T15:16:00.840Z,99724.11
2019-05-14T15:18:30.631Z,99710.88
2019-05-14T15:21:02.205Z,99707.28
2019-05-14T15:23:33.941Z,99711.14
2019-05-14T15:26:11.528Z,99717.16
2019-05-14T15:28:39.850Z,99714.72
2019-05-14T15:31:11.577Z,99711.64
2019-05-14T15:33:43.228Z,99708.86
2019-05-14T15:36:14.779Z,99709.36
2019-05-14T15:38:48.642Z,99717.16
2019-05-14T15:41:20.484Z,99716.47
2019-05-14T15:43:52.094Z,99717.65
2019-05-14T15:46:23.588Z,99719.30
2019-05-14T15:48:55.419Z,99721.88
2019-05-14T15:51:28.615Z,99716.94
2019-05-14T15:54:11.602Z,99713.17
2019-05-14T15:56:34.267Z,99716.92
2019-05-14T15:59:08.566Z,99710.21
2019-05-14T16:01:39.899Z,99710.36
2019-05-14T16:04:11.661Z,99707.18
2019-05-14T16:06:43.571Z,99707.12
2019-05-14T16:09:15.303Z,99701.28
2019-05-14T16:11:48.354Z,99702.50
2019-05-14T16:14:19.867Z,99705.59
2019-05-14T16:16:51.600Z,99703.06
2019-05-14T16:19:23.563Z,99704.31
2019-05-14T16:21:55.156Z,99709.23
2019-05-14T16:24:28.560Z,99711.72
2019-05-14T16:27:00.787Z,99703.14
2019-05-14T16:29:41.352Z,99706.30
2019-05-14T16:32:08.260Z,99704.70
2019-05-14T16:34:41.302Z,99706.84
2019-05-14T16:37:13.038Z,99706.12
2019-05-14T16:39:44.692Z,99710.26
2019-05-14T16:42:20.276Z,99715.55
2019-05-14T16:44:49.229Z,99722.57
2019-05-14T16:47:21.093Z,99727.05
2019-05-14T16:49:52.780Z,99723.48
2019-05-14T16:52:24.514Z,99721.41
2019-05-14T16:55:12.306Z,99724.84
2019-05-14T16:57:30.165Z,99732.12
2019-05-14T17:00:02.062Z,99725.14
2019-05-14T17:02:34.094Z,99719.77
2019-05-14T17:05:08.915Z,99724.31
2019-05-14T17:07:39.761Z,99727.45
2019-05-14T17:10:12.892Z,99722.17
2019-05-14T17:12:52.024Z,99726.98
2019-05-14T17:15:18.408Z,99730.58
2019-05-14T17:17:49.919Z,99718.80
2019-05-14T17:20:24.257Z,99720.95
2019-05-14T17:22:54.808Z,99718.59
2019-05-14T17:25:30.054Z,99725.97
2019-05-14T17:27:59.810Z,99735.88
2019-05-14T17:30:31.462Z,99728.98
2019-05-14T17:33:03.390Z,99723.59
2019-05-14T17:35:35.136Z,99717.38
2019-05-14T17:38:09.068Z,99722.46
2019-05-14T17:40:40.545Z,99725.98
2019-05-14T17:43:12.110Z,99725.78
2019-05-14T17:45:43.966Z,99719.74
2019-05-14T17:48:15.491Z,99719.74
2019-05-14T17:50:49.235Z,99709.53
2019-05-14T17:53:20.846Z,99725.00
2019-05-14T17:55:52.194Z,99723.22
2019-05-14T17:58:24.204Z,99725.48
2019-05-14T18:00:58.022Z,99725.56
2019-05-14T18:03:30.257Z,99735.20
2019-05-14T18:06:01.781Z,99736.90
2019-05-14T18:08:33.567Z,99735.76
2019-05-14T18:11:04.996Z,99740.66
2019-05-14T18:13:39.174Z,99741.97
2019-05-14T18:16:10.416Z,99742.65
2019-05-14T18:18:42.074Z,99749.92
2019-05-14T18:21:13.747Z,99749.92
2019-05-14T18:23:45.736Z,99740.66
2019-05-14T18:26:18.941Z,99749.05
2019-05-14T18:28:50.699Z,99749.92
2019-05-14T18:31:22.458Z,99749.81
2019-05-14T18:33:54.151Z,99746.98
2019-05-14T18:36:28.231Z,99749.05
2019-05-14T18:38:58.878Z,99743.92
2019-05-14T18:41:30.348Z,99754.11
2019-05-14T18:44:02.947Z,99743.44
2019-05-14T18:46:34.481Z,99746.54
2019-05-14T18:49:08.793Z,99742.87
2019-05-14T18:51:40.558Z,99742.57
2019-05-14T18:54:12.310Z,99741.42
2019-05-14T18:56:43.978Z,99746.24
2019-05-14T18:59:20.938Z,99745.37
2019-05-14T19:01:53.553Z,99734.54
2019-05-14T19:04:22.831Z,99734.31
2019-05-14T19:06:55.256Z,99731.22
2019-05-14T19:09:29.174Z,99732.03
2019-05-14T19:12:00.655Z,99731.91
2019-05-14T19:14:32.580Z,99732.75
2019-05-14T19:17:04.576Z,99727.63
2019-05-14T19:19:38.458Z,99731.48
2019-05-14T19:22:10.060Z,99724.22
2019-05-14T19:24:41.692Z,99727.42
2019-05-14T19:27:13.185Z,99728.08
2019-05-14T19:29:44.861Z,99729.19
2019-05-14T19:32:18.938Z,99731.82
2019-05-14T19:34:49.869Z,99727.19
2019-05-14T19:37:22.836Z,99732.27
2019-05-14T19:39:55.306Z,99727.91
2019-05-14T19:42:28.821Z,99719.46
2019-05-14T19:45:00.261Z,99723.00
2019-05-14T19:47:31.990Z,99726.03
2019-05-14T19:50:08.914Z,99731.80
2019-05-14T19:52:40.752Z,99725.33
2019-05-14T19:55:12.756Z,99728.16
2019-05-14T19:57:44.169Z,99732.11
2019-05-14T20:00:18.981Z,99720.61
2019-05-14T20:02:50.460Z,99725.39
2019-05-14T20:05:21.909Z,99734.37
2019-05-14T20:07:53.659Z,99740.02
2019-05-14T20:10:25.306Z,99738.20
2019-05-14T20:12:59.091Z,99733.41
2019-05-14T20:15:30.372Z,99734.73
2019-05-14T20:18:02.220Z,99729.73
2019-05-14T20:20:34.105Z,99739.70
2019-05-14T20:23:05.673Z,99742.33
2019-05-14T20:25:38.750Z,99740.66
2019-05-14T20:28:10.375Z,99737.70
2019-05-14T20:30:42.041Z,99733.66
2019-05-14T20:33:14.025Z,99727.50
2019-05-14T20:35:47.928Z,99731.55
2019-05-14T20:38:19.252Z,99734.81
2019-05-14T20:40:50.905Z,99728.41
2019-05-14T20:43:22.711Z,99719.64
2019-05-14T20:45:54.418Z,99723.88
2019-05-14T20:48:28.064Z,99723.56
2019-05-14T20:50:58.964Z,99729.22
2019-05-14T20:53:30.436Z,99727.05
2019-05-14T20:56:02.083Z,99725.80
2019-05-14T20:58:33.615Z,99733.39
2019-05-14T21:01:05.434Z,99734.52
2019-05-14T21:03:36.937Z,99732.98
2019-05-14T21:06:09.060Z,99737.23
2019-05-14T21:08:40.649Z,99733.23
2019-05-14T21:11:12.408Z,99727.59
2019-05-14T21:13:44.018Z,99727.59
2019-05-14T21:16:15.536Z,99728.91
2019-05-14T21:18:48.781Z,99731.83
2019-05-14T21:21:20.422Z,99732.19
2019-05-14T21:23:52.013Z,99728.15
2019-05-14T21:26:23.877Z,99731.53
2019-05-14T21:28:55.622Z,99731.42
2019-05-14T21:31:28.416Z,99732.27
2019-05-14T21:34:00.059Z,99726.73
2019-05-14T21:36:31.528Z,99728.80
2019-05-14T21:39:03.064Z,99724.67
2019-05-14T21:41:34.640Z,99721.66
2019-05-14T21:44:08.576Z,99721.02
2019-05-14T21:46:40.017Z,99724.61
2019-05-14T21:49:11.569Z,99720.02
2019-05-14T21:51:43.182Z,99719.17
2019-05-14T21:54:14.754Z,99710.83
2019-05-14T21:56:49.357Z,99715.31
2019-05-14T21:59:19.465Z,99709.82
2019-05-14T22:01:51.043Z,99714.59
2019-05-14T22:04:23.631Z,99712.69
2019-05-14T22:06:55.164Z,99709.30
2019-05-14T22:09:28.489Z,99702.89
2019-05-14T22:12:00.975Z,99704.98
2019-05-14T22:14:32.996Z,99704.46
2019-05-14T22:17:04.844Z,99700.88
2019-05-14T22:19:38.401Z,99703.28
2019-05-14T22:22:10.074Z,99701.00
2019-05-14T22:24:42.892Z,99703.24
2019-05-14T22:27:14.772Z,99710.68
2019-05-14T22:29:46.612Z,99711.03
2019-05-14T22:32:19.023Z,99708.23
2019-05-14T22:34:51.056Z,99704.02
2019-05-14T22:37:28.979Z,99707.62
2019-05-14T22:40:00.913Z,99704.59
2019-05-14T22:42:32.826Z,99702.85
2019-05-14T22:45:09.336Z,99703.94
2019-05-14T22:47:54.908Z,99700.91
2019-05-14T22:50:29.186Z,99702.52
2019-05-14T22:53:00.077Z,99699.84
2019-05-14T22:55:49.230Z,99697.67
2019-05-14T22:58:25.512Z,99698.66
2019-05-14T23:01:13.236Z,99699.19
2019-05-14T23:03:31.376Z,99696.16
2019-05-14T23:06:03.155Z,99690.66
2019-05-14T23:08:34.933Z,99694.88
2019-05-14T23:11:08.696Z,99689.67
2019-05-14T23:13:41.380Z,99690.88
2019-05-14T23:16:12.931Z,99688.37
2019-05-14T23:18:44.704Z,99681.34
2019-05-14T23:21:17.842Z,99684.03
2019-05-14T23:23:49.733Z,99684.92
2019-05-14T23:26:21.491Z,99692.92
2019-05-14T23:28:53.370Z,99685.45
2019-05-14T23:31:24.743Z,99684.05
2019-05-14T23:33:58.445Z,99684.39
2019-05-14T23:36:31.307Z,99681.12
2019-05-14T23:39:05.030Z,99688.04
2019-05-14T23:41:38.309Z,99681.64
2019-05-14T23:44:10.051Z,99678.83
2019-05-14T23:46:42.010Z,99676.22
2019-05-14T23:49:13.673Z,99671.36
2019-05-14T23:51:45.519Z,99676.86
2019-05-14T23:54:18.242Z,99676.22
2019-05-14T23:56:50.370Z,99672.00
2019-05-14T23:59:22.145Z,99672.09
